sensor_id;sensor_type;location;lat;lon;timestamp;pressure;altitude;pressure_sealevel;temperature;humidity
11099;BME280;12223;42.650;23.364;2023-08-06T00:00:21;93631.94;;;23.99;100.00
11099;BME280;12223;42.650;23.364;2023-08-06T00:02:49;93633.00;;;24.27;100.00
11099;BME280;12223;42.650;23.364;2023-08-06T00:05:16;93645.59;;;23.52;100.00
11099;BME280;12223;42.650;23.364;2023-08-06T00:07:43;93635.16;;;23.21;100.00
11099;BME280;12223;42.650;23.364;2023-08-06T00:10:10;93618.47;;;23.78;100.00
11099;BME280;12223;42.650;23.364;2023-08-06T00:12:39;93637.72;;;22.89;100.00
11099;BME280;12223;42.650;23.364;2023-08-06T00:15:06;93654.72;;;23.39;100.00
11099;BME280;12223;42.650;23.364;2023-08-06T00:17:33;93633.88;;;22.90;100.00
11099;BME280;12223;42.650;23.364;2023-08-06T00:20:00;93613.19;;;22.09;100.00
11099;BME280;12223;42.650;23.364;2023-08-06T00:22:30;93630.44;;;22.72;100.00
11099;BME280;12223;42.650;23.364;2023-08-06T00:24:57;93627.03;;;23.30;100.00
11099;BME280;12223;42.650;23.364;2023-08-06T00:27:24;93623.25;;;23.22;100.00
11099;BME280;12223;42.650;23.364;2023-08-06T00:29:52;93622.56;;;22.75;100.00
11099;BME280;12223;42.650;23.364;2023-08-06T00:32:19;93609.84;;;22.21;100.00
11099;BME280;12223;42.650;23.364;2023-08-06T00:34:46;93594.88;;;22.02;100.00
11099;BME280;12223;42.650;23.364;2023-08-06T00:37:15;93603.59;;;22.55;100.00
11099;BME280;12223;42.650;23.364;2023-08-06T00:39:42;93599.78;;;21.75;100.00
11099;BME280;12223;42.650;23.364;2023-08-06T00:42:08;93586.81;;;21.85;100.00
11099;BME280;12223;42.650;23.364;2023-08-06T00:44:35;93589.81;;;21.49;100.00
11099;BME280;12223;42.650;23.364;2023-08-06T00:47:04;93547.56;;;21.07;100.00
11099;BME280;12223;42.650;23.364;2023-08-06T00:49:31;93551.09;;;21.50;100.00
11099;BME280;12223;42.650;23.364;2023-08-06T00:51:58;93578.06;;;22.14;100.00
11099;BME280;12223;42.650;23.364;2023-08-06T00:54:27;93569.88;;;21.93;100.00
11099;BME280;12223;42.650;23.364;2023-08-06T00:56:54;93587.34;;;22.34;100.00
11099;BME280;12223;42.650;23.364;2023-08-06T00:59:23;93585.97;;;22.74;100.00
11099;BME280;12223;42.650;23.364;2023-08-06T01:01:49;93581.19;;;22.71;100.00
11099;BME280;12223;42.650;23.364;2023-08-06T01:04:18;93559.34;;;22.81;100.00
11099;BME280;12223;42.650;23.364;2023-08-06T01:06:48;93560.31;;;23.06;100.00
11099;BME280;12223;42.650;23.364;2023-08-06T01:09:31;93554.16;;;23.06;100.00
11099;BME280;12223;42.650;23.364;2023-08-06T01:12:06;93561.84;;;22.87;100.00
11099;BME280;12223;42.650;23.364;2023-08-06T01:14:45;93562.63;;;23.16;100.00
11099;BME280;12223;42.650;23.364;2023-08-06T01:17:14;93564.72;;;23.11;100.00
11099;BME280;12223;42.650;23.364;2023-08-06T01:19:42;93576.59;;;23.10;100.00
11099;BME280;12223;42.650;23.364;2023-08-06T01:22:10;93552.72;;;22.32;100.00
11099;BME280;12223;42.650;23.364;2023-08-06T01:24:37;93537.34;;;22.79;100.00
11099;BME280;12223;42.650;23.364;2023-08-06T01:27:07;93536.28;;;23.22;100.00
11099;BME280;12223;42.650;23.364;2023-08-06T01:29:42;93541.50;;;23.69;100.00
11099;BME280;12223;42.650;23.364;2023-08-06T01:32:12;93539.50;;;23.78;100.00
11099;BME280;12223;42.650;23.364;2023-08-06T01:34:41;93531.16;;;22.41;100.00
11099;BME280;12223;42.650;23.364;2023-08-06T01:37:12;93540.81;;;23.09;100.00
11099;BME280;12223;42.650;23.364;2023-08-06T01:39:40;93534.63;;;22.50;100.00
11099;BME280;12223;42.650;23.364;2023-08-06T01:42:08;93528.72;;;22.95;100.00
11099;BME280;12223;42.650;23.364;2023-08-06T01:44:35;93523.81;;;22.59;100.00
11099;BME280;12223;42.650;23.364;2023-08-06T01:47:02;93522.19;;;22.96;100.00
11099;BME280;12223;42.650;23.364;2023-08-06T01:49:29;93520.50;;;22.91;100.00
11099;BME280;12223;42.650;23.364;2023-08-06T01:51:56;93524.53;;;23.06;100.00
11099;BME280;12223;42.650;23.364;2023-08-06T01:54:24;93533.63;;;23.63;100.00
11099;BME280;12223;42.650;23.364;2023-08-06T01:56:51;93542.88;;;23.54;100.00
11099;BME280;12223;42.650;23.364;2023-08-06T01:59:17;93546.09;;;23.68;100.00
11099;BME280;12223;42.650;23.364;2023-08-06T02:01:45;93534.22;;;23.48;100.00
11099;BME280;12223;42.650;23.364;2023-08-06T02:04:11;93525.59;;;23.76;100.00
11099;BME280;12223;42.650;23.364;2023-08-06T02:06:38;93534.06;;;23.24;100.00
11099;BME280;12223;42.650;23.364;2023-08-06T02:09:05;93519.06;;;23.14;100.00
11099;BME280;12223;42.650;23.364;2023-08-06T02:11:33;93512.38;;;23.41;100.00
11099;BME280;12223;42.650;23.364;2023-08-06T02:14:00;93514.84;;;23.88;100.00
11099;BME280;12223;42.650;23.364;2023-08-06T02:16:26;93531.84;;;24.00;100.00
11099;BME280;12223;42.650;23.364;2023-08-06T02:18:53;93526.66;;;23.95;100.00
11099;BME280;12223;42.650;23.364;2023-08-06T02:21:20;93530.16;;;23.96;100.00
11099;BME280;12223;42.650;23.364;2023-08-06T02:23:47;93539.59;;;24.02;100.00
11099;BME280;12223;42.650;23.364;2023-08-06T02:26:13;93552.50;;;23.63;100.00
11099;BME280;12223;42.650;23.364;2023-08-06T02:28:41;93556.94;;;23.80;100.00
11099;BME280;12223;42.650;23.364;2023-08-06T02:31:08;93554.91;;;23.56;100.00
11099;BME280;12223;42.650;23.364;2023-08-06T02:33:35;93525.78;;;22.79;100.00
11099;BME280;12223;42.650;23.364;2023-08-06T02:36:02;93505.41;;;22.69;100.00
11099;BME280;12223;42.650;23.364;2023-08-06T02:38:30;93535.63;;;22.75;100.00
11099;BME280;12223;42.650;23.364;2023-08-06T02:40:56;93550.34;;;23.07;100.00
11099;BME280;12223;42.650;23.364;2023-08-06T02:43:23;93572.88;;;23.23;100.00
11099;BME280;12223;42.650;23.364;2023-08-06T02:45:51;93570.41;;;23.39;100.00
11099;BME280;12223;42.650;23.364;2023-08-06T02:48:18;93567.50;;;23.44;100.00
11099;BME280;12223;42.650;23.364;2023-08-06T02:50:45;93551.31;;;23.02;100.00
11099;BME280;12223;42.650;23.364;2023-08-06T02:53:11;93530.44;;;22.23;100.00
11099;BME280;12223;42.650;23.364;2023-08-06T02:55:45;93520.72;;;22.39;100.00
11099;BME280;12223;42.650;23.364;2023-08-06T02:58:13;93500.59;;;22.08;100.00
11099;BME280;12223;42.650;23.364;2023-08-06T03:00:39;93501.28;;;21.87;100.00
11099;BME280;12223;42.650;23.364;2023-08-06T03:03:07;93477.28;;;21.13;100.00
11099;BME280;12223;42.650;23.364;2023-08-06T03:05:34;93450.88;;;21.67;100.00
11099;BME280;12223;42.650;23.364;2023-08-06T03:08:01;93491.22;;;22.52;100.00
11099;BME280;12223;42.650;23.364;2023-08-06T03:10:28;93471.88;;;22.58;100.00
11099;BME280;12223;42.650;23.364;2023-08-06T03:12:54;93434.69;;;21.93;100.00
11099;BME280;12223;42.650;23.364;2023-08-06T03:15:21;93467.31;;;22.29;100.00
11099;BME280;12223;42.650;23.364;2023-08-06T03:17:48;93489.78;;;22.63;100.00
11099;BME280;12223;42.650;23.364;2023-08-06T03:20:16;93450.28;;;22.08;100.00
11099;BME280;12223;42.650;23.364;2023-08-06T03:22:43;93447.78;;;21.94;100.00
11099;BME280;12223;42.650;23.364;2023-08-06T03:25:09;93438.19;;;21.85;100.00
11099;BME280;12223;42.650;23.364;2023-08-06T03:27:36;93470.59;;;22.35;100.00
11099;BME280;12223;42.650;23.364;2023-08-06T03:30:03;93467.69;;;21.38;100.00
11099;BME280;12223;42.650;23.364;2023-08-06T03:32:30;93472.09;;;21.60;100.00
11099;BME280;12223;42.650;23.364;2023-08-06T03:34:57;93482.78;;;21.86;100.00
11099;BME280;12223;42.650;23.364;2023-08-06T03:37:25;93481.50;;;21.92;100.00
11099;BME280;12223;42.650;23.364;2023-08-06T03:39:52;93460.56;;;20.99;100.00
11099;BME280;12223;42.650;23.364;2023-08-06T03:42:19;93366.94;;;19.81;100.00
11099;BME280;12223;42.650;23.364;2023-08-06T03:44:45;93335.56;;;20.72;100.00
11099;BME280;12223;42.650;23.364;2023-08-06T03:47:13;93406.41;;;21.06;100.00
11099;BME280;12223;42.650;23.364;2023-08-06T03:49:39;93414.13;;;21.07;100.00
11099;BME280;12223;42.650;23.364;2023-08-06T03:52:07;93449.00;;;21.67;100.00
11099;BME280;12223;42.650;23.364;2023-08-06T03:54:35;93476.75;;;22.06;100.00
11099;BME280;12223;42.650;23.364;2023-08-06T03:57:02;93482.44;;;22.04;100.00
11099;BME280;12223;42.650;23.364;2023-08-06T03:59:29;93497.59;;;22.47;100.00
11099;BME280;12223;42.650;23.364;2023-08-06T04:01:55;93528.63;;;22.82;100.00
11099;BME280;12223;42.650;23.364;2023-08-06T04:04:22;93541.94;;;22.70;100.00
11099;BME280;12223;42.650;23.364;2023-08-06T04:06:49;93539.84;;;22.46;100.00
11099;BME280;12223;42.650;23.364;2023-08-06T04:09:16;93536.94;;;22.60;100.00
11099;BME280;12223;42.650;23.364;2023-08-06T04:11:44;93531.47;;;22.48;100.00
11099;BME280;12223;42.650;23.364;2023-08-06T04:14:10;93510.47;;;22.33;100.00
11099;BME280;12223;42.650;23.364;2023-08-06T04:16:37;93499.88;;;22.66;100.00
11099;BME280;12223;42.650;23.364;2023-08-06T04:19:04;93457.25;;;21.54;100.00
11099;BME280;12223;42.650;23.364;2023-08-06T04:21:31;93471.69;;;21.96;100.00
11099;BME280;12223;42.650;23.364;2023-08-06T04:23:57;93497.78;;;22.71;100.00
11099;BME280;12223;42.650;23.364;2023-08-06T04:26:24;93514.34;;;23.32;100.00
11099;BME280;12223;42.650;23.364;2023-08-06T04:28:52;93505.44;;;22.31;100.00
11099;BME280;12223;42.650;23.364;2023-08-06T04:31:19;93498.50;;;22.51;100.00
11099;BME280;12223;42.650;23.364;2023-08-06T04:33:46;93509.84;;;22.65;100.00
11099;BME280;12223;42.650;23.364;2023-08-06T04:36:12;93506.13;;;23.29;100.00
11099;BME280;12223;42.650;23.364;2023-08-06T04:38:39;93499.06;;;22.65;100.00
11099;BME280;12223;42.650;23.364;2023-08-06T04:41:09;93473.25;;;22.05;100.00
11099;BME280;12223;42.650;23.364;2023-08-06T04:43:36;93420.31;;;21.25;100.00
11099;BME280;12223;42.650;23.364;2023-08-06T04:46:05;93401.94;;;21.44;100.00
11099;BME280;12223;42.650;23.364;2023-08-06T04:48:32;93418.16;;;21.74;100.00
11099;BME280;12223;42.650;23.364;2023-08-06T04:50:58;93425.84;;;21.92;100.00
11099;BME280;12223;42.650;23.364;2023-08-06T04:53:25;93389.19;;;21.33;100.00
11099;BME280;12223;42.650;23.364;2023-08-06T04:55:52;93353.88;;;20.70;100.00
11099;BME280;12223;42.650;23.364;2023-08-06T04:58:19;93335.38;;;21.03;100.00
11099;BME280;12223;42.650;23.364;2023-08-06T05:00:46;93372.28;;;21.15;100.00
11099;BME280;12223;42.650;23.364;2023-08-06T05:03:14;93380.31;;;21.87;100.00
11099;BME280;12223;42.650;23.364;2023-08-06T05:05:40;93387.00;;;20.74;100.00
11099;BME280;12223;42.650;23.364;2023-08-06T05:08:07;93357.47;;;21.64;100.00
11099;BME280;12223;42.650;23.364;2023-08-06T05:10:42;93399.94;;;22.46;100.00
11099;BME280;12223;42.650;23.364;2023-08-06T05:13:09;93452.00;;;24.20;100.00
11099;BME280;12223;42.650;23.364;2023-08-06T05:15:36;93502.97;;;25.47;100.00
11099;BME280;12223;42.650;23.364;2023-08-06T05:18:02;93503.00;;;23.27;100.00
11099;BME280;12223;42.650;23.364;2023-08-06T05:20:31;93513.31;;;23.78;100.00
11099;BME280;12223;42.650;23.364;2023-08-06T05:22:57;93496.41;;;23.36;100.00
11099;BME280;12223;42.650;23.364;2023-08-06T05:25:24;93486.53;;;22.02;100.00
11099;BME280;12223;42.650;23.364;2023-08-06T05:27:51;93454.91;;;21.90;100.00
11099;BME280;12223;42.650;23.364;2023-08-06T05:30:18;93469.72;;;22.81;100.00
11099;BME280;12223;42.650;23.364;2023-08-06T05:32:45;93464.84;;;22.45;100.00
11099;BME280;12223;42.650;23.364;2023-08-06T05:35:12;93482.09;;;23.44;100.00
11099;BME280;12223;42.650;23.364;2023-08-06T05:37:40;93476.00;;;24.13;100.00
11099;BME280;12223;42.650;23.364;2023-08-06T05:40:08;93474.34;;;24.09;100.00
11099;BME280;12223;42.650;23.364;2023-08-06T05:42:34;93477.22;;;24.03;100.00
11099;BME280;12223;42.650;23.364;2023-08-06T05:45:01;93467.31;;;23.50;100.00
11099;BME280;12223;42.650;23.364;2023-08-06T05:47:28;93461.56;;;22.69;100.00
11099;BME280;12223;42.650;23.364;2023-08-06T05:49:55;93452.91;;;22.84;100.00
11099;BME280;12223;42.650;23.364;2023-08-06T05:52:21;93472.22;;;24.75;100.00
11099;BME280;12223;42.650;23.364;2023-08-06T05:54:49;93477.91;;;25.90;100.00
11099;BME280;12223;42.650;23.364;2023-08-06T05:57:16;93481.09;;;26.70;100.00
11099;BME280;12223;42.650;23.364;2023-08-06T05:59:43;93479.53;;;26.69;100.00
11099;BME280;12223;42.650;23.364;2023-08-06T06:02:10;93485.72;;;26.86;100.00
11099;BME280;12223;42.650;23.364;2023-08-06T06:04:37;93494.81;;;27.28;99.45
11099;BME280;12223;42.650;23.364;2023-08-06T06:07:04;93502.97;;;27.63;91.81
11099;BME280;12223;42.650;23.364;2023-08-06T06:09:31;93495.78;;;26.85;93.80
11099;BME280;12223;42.650;23.364;2023-08-06T06:11:59;93499.91;;;27.49;92.21
11099;BME280;12223;42.650;23.364;2023-08-06T06:14:25;93508.06;;;27.49;82.61
11099;BME280;12223;42.650;23.364;2023-08-06T06:16:52;93508.97;;;25.40;96.65
11099;BME280;12223;42.650;23.364;2023-08-06T06:19:19;93516.88;;;26.17;98.60
11099;BME280;12223;42.650;23.364;2023-08-06T06:21:46;93528.34;;;25.30;100.00
11099;BME280;12223;42.650;23.364;2023-08-06T06:24:13;93530.75;;;26.74;90.61
11099;BME280;12223;42.650;23.364;2023-08-06T06:26:39;93539.69;;;26.31;92.14
11099;BME280;12223;42.650;23.364;2023-08-06T06:29:07;93543.38;;;25.03;100.00
11099;BME280;12223;42.650;23.364;2023-08-06T06:31:34;93541.44;;;25.68;96.16
11099;BME280;12223;42.650;23.364;2023-08-06T06:34:01;93546.63;;;24.84;100.00
11099;BME280;12223;42.650;23.364;2023-08-06T06:36:28;93556.66;;;23.32;100.00
11099;BME280;12223;42.650;23.364;2023-08-06T06:38:54;93554.94;;;22.77;100.00
11099;BME280;12223;42.650;23.364;2023-08-06T06:41:21;93559.47;;;22.47;100.00
11099;BME280;12223;42.650;23.364;2023-08-06T06:43:49;93550.41;;;23.40;100.00
11099;BME280;12223;42.650;23.364;2023-08-06T06:46:17;93546.94;;;23.39;100.00
11099;BME280;12223;42.650;23.364;2023-08-06T06:48:44;93563.84;;;23.48;100.00
11099;BME280;12223;42.650;23.364;2023-08-06T06:51:10;93570.16;;;22.73;100.00
11099;BME280;12223;42.650;23.364;2023-08-06T06:53:37;93574.38;;;23.83;100.00
11099;BME280;12223;42.650;23.364;2023-08-06T06:56:05;93575.81;;;23.59;100.00
11099;BME280;12223;42.650;23.364;2023-08-06T06:58:32;93573.88;;;25.16;100.00
11099;BME280;12223;42.650;23.364;2023-08-06T07:00:59;93575.97;;;24.86;100.00
11099;BME280;12223;42.650;23.364;2023-08-06T07:03:27;93583.88;;;24.91;100.00
11099;BME280;12223;42.650;23.364;2023-08-06T07:05:57;93581.81;;;23.98;100.00
11099;BME280;12223;42.650;23.364;2023-08-06T07:08:24;93584.88;;;25.11;100.00
11099;BME280;12223;42.650;23.364;2023-08-06T07:10:50;93581.41;;;26.58;91.42
11099;BME280;12223;42.650;23.364;2023-08-06T07:13:17;93586.94;;;27.25;77.10
11099;BME280;12223;42.650;23.364;2023-08-06T07:15:44;93599.91;;;27.50;69.75
11099;BME280;12223;42.650;23.364;2023-08-06T07:18:10;93604.66;;;27.53;69.45
11099;BME280;12223;42.650;23.364;2023-08-06T07:20:39;93608.00;;;28.01;66.55
11099;BME280;12223;42.650;23.364;2023-08-06T07:23:05;93605.88;;;26.62;72.27
11099;BME280;12223;42.650;23.364;2023-08-06T07:25:32;93604.56;;;25.11;80.48
11099;BME280;12223;42.650;23.364;2023-08-06T07:27:59;93600.03;;;26.04;79.36
11099;BME280;12223;42.650;23.364;2023-08-06T07:30:27;93594.84;;;26.70;75.73
11099;BME280;12223;42.650;23.364;2023-08-06T07:32:54;93600.56;;;27.28;68.61
11099;BME280;12223;42.650;23.364;2023-08-06T07:35:21;93609.53;;;27.32;66.99
11099;BME280;12223;42.650;23.364;2023-08-06T07:37:49;93603.25;;;27.79;62.29
11099;BME280;12223;42.650;23.364;2023-08-06T07:40:16;93598.78;;;26.57;64.84
11099;BME280;12223;42.650;23.364;2023-08-06T07:42:43;93607.94;;;25.33;70.66
11099;BME280;12223;42.650;23.364;2023-08-06T07:45:09;93607.50;;;25.06;74.02
11099;BME280;12223;42.650;23.364;2023-08-06T07:47:36;93610.78;;;24.42;77.76
11099;BME280;12223;42.650;23.364;2023-08-06T07:50:04;93607.38;;;23.80;87.25
11099;BME280;12223;42.650;23.364;2023-08-06T07:52:30;93609.06;;;24.05;84.84
11099;BME280;12223;42.650;23.364;2023-08-06T07:54:59;93612.06;;;24.03;86.75
11099;BME280;12223;42.650;23.364;2023-08-06T07:57:27;93600.91;;;23.93;85.69
11099;BME280;12223;42.650;23.364;2023-08-06T07:59:53;93596.66;;;24.82;82.21
11099;BME280;12223;42.650;23.364;2023-08-06T08:02:20;93595.56;;;25.96;73.07
11099;BME280;12223;42.650;23.364;2023-08-06T08:04:47;93591.13;;;27.22;65.66
11099;BME280;12223;42.650;23.364;2023-08-06T08:07:14;93596.66;;;28.15;59.50
11099;BME280;12223;42.650;23.364;2023-08-06T08:09:40;93601.03;;;27.65;57.79
11099;BME280;12223;42.650;23.364;2023-08-06T08:12:09;93593.22;;;27.98;56.76
11099;BME280;12223;42.650;23.364;2023-08-06T08:14:35;93600.53;;;28.75;53.44
11099;BME280;12223;42.650;23.364;2023-08-06T08:17:02;93599.22;;;29.34;51.32
11099;BME280;12223;42.650;23.364;2023-08-06T08:19:29;93604.69;;;29.14;50.98
11099;BME280;12223;42.650;23.364;2023-08-06T08:21:56;93597.44;;;30.01;48.67
11099;BME280;12223;42.650;23.364;2023-08-06T08:24:23;93590.91;;;29.79;48.88
11099;BME280;12223;42.650;23.364;2023-08-06T08:26:50;93592.75;;;26.48;54.85
11099;BME280;12223;42.650;23.364;2023-08-06T08:29:19;93602.22;;;26.26;60.28
11099;BME280;12223;42.650;23.364;2023-08-06T08:31:46;93596.19;;;26.05;61.60
11099;BME280;12223;42.650;23.364;2023-08-06T08:34:14;93599.59;;;25.62;64.23
11099;BME280;12223;42.650;23.364;2023-08-06T08:36:41;93608.09;;;27.03;60.19
11099;BME280;12223;42.650;23.364;2023-08-06T08:39:08;93612.16;;;27.60;58.00
11099;BME280;12223;42.650;23.364;2023-08-06T08:41:36;93601.34;;;27.13;59.25
11099;BME280;12223;42.650;23.364;2023-08-06T08:44:05;93608.16;;;26.32;60.49
11099;BME280;12223;42.650;23.364;2023-08-06T08:46:36;93606.03;;;27.63;55.31
11099;BME280;12223;42.650;23.364;2023-08-06T08:49:04;93596.28;;;28.35;52.91
11099;BME280;12223;42.650;23.364;2023-08-06T08:51:32;93593.50;;;28.97;50.10
11099;BME280;12223;42.650;23.364;2023-08-06T08:54:02;93591.63;;;29.24;49.77
11099;BME280;12223;42.650;23.364;2023-08-06T08:56:29;93587.47;;;29.56;49.46
11099;BME280;12223;42.650;23.364;2023-08-06T08:58:56;93590.84;;;28.35;53.25
11099;BME280;12223;42.650;23.364;2023-08-06T09:01:24;93585.75;;;27.26;58.51
11099;BME280;12223;42.650;23.364;2023-08-06T09:03:53;93586.22;;;26.65;63.57
11099;BME280;12223;42.650;23.364;2023-08-06T09:06:20;93582.47;;;26.85;62.85
11099;BME280;12223;42.650;23.364;2023-08-06T09:08:54;93580.13;;;27.50;59.26
11099;BME280;12223;42.650;23.364;2023-08-06T09:11:23;93573.31;;;27.05;58.92
11099;BME280;12223;42.650;23.364;2023-08-06T09:13:50;93578.72;;;26.90;60.03
11099;BME280;12223;42.650;23.364;2023-08-06T09:16:17;93575.16;;;25.98;64.79
11099;BME280;12223;42.650;23.364;2023-08-06T09:18:43;93564.94;;;24.79;77.36
11099;BME280;12223;42.650;23.364;2023-08-06T09:21:15;93559.78;;;26.02;71.23
11099;BME280;12223;42.650;23.364;2023-08-06T09:23:42;93563.47;;;25.82;71.43
11099;BME280;12223;42.650;23.364;2023-08-06T09:26:11;93558.16;;;25.58;70.48
11099;BME280;12223;42.650;23.364;2023-08-06T09:28:39;93560.41;;;26.24;66.93
11099;BME280;12223;42.650;23.364;2023-08-06T09:31:08;93557.34;;;27.35;60.95
11099;BME280;12223;42.650;23.364;2023-08-06T09:33:37;93556.00;;;25.51;68.46
11099;BME280;12223;42.650;23.364;2023-08-06T09:36:08;93545.41;;;26.73;64.02
11099;BME280;12223;42.650;23.364;2023-08-06T09:38:39;93532.75;;;26.77;61.73
11099;BME280;12223;42.650;23.364;2023-08-06T09:41:06;93548.53;;;27.23;59.42
11099;BME280;12223;42.650;23.364;2023-08-06T09:43:40;93538.44;;;26.72;61.46
11099;BME280;12223;42.650;23.364;2023-08-06T09:46:11;93544.78;;;28.39;54.22
11099;BME280;12223;42.650;23.364;2023-08-06T09:48:40;93535.31;;;28.75;50.40
11099;BME280;12223;42.650;23.364;2023-08-06T09:51:08;93552.41;;;27.06;48.07
11099;BME280;12223;42.650;23.364;2023-08-06T09:53:36;93560.56;;;26.31;51.31
11099;BME280;12223;42.650;23.364;2023-08-06T09:56:05;93558.88;;;27.52;49.35
11099;BME280;12223;42.650;23.364;2023-08-06T09:58:32;93558.25;;;27.58;48.31
11099;BME280;12223;42.650;23.364;2023-08-06T10:01:00;93554.13;;;26.82;52.09
11099;BME280;12223;42.650;23.364;2023-08-06T10:03:29;93554.63;;;28.28;48.20
11099;BME280;12223;42.650;23.364;2023-08-06T10:05:57;93559.69;;;28.10;47.05
11099;BME280;12223;42.650;23.364;2023-08-06T10:08:27;93556.91;;;28.45;45.62
11099;BME280;12223;42.650;23.364;2023-08-06T10:10:54;93566.31;;;28.51;46.84
11099;BME280;12223;42.650;23.364;2023-08-06T10:13:24;93555.47;;;26.73;49.66
11099;BME280;12223;42.650;23.364;2023-08-06T10:15:51;93558.59;;;26.16;51.87
11099;BME280;12223;42.650;23.364;2023-08-06T10:18:19;93565.00;;;26.67;51.90
11099;BME280;12223;42.650;23.364;2023-08-06T10:20:47;93560.63;;;27.79;48.31
11099;BME280;12223;42.650;23.364;2023-08-06T10:23:14;93558.47;;;27.34;49.18
11099;BME280;12223;42.650;23.364;2023-08-06T10:25:42;93561.38;;;26.63;50.16
11099;BME280;12223;42.650;23.364;2023-08-06T10:28:10;93568.16;;;28.24;47.21
11099;BME280;12223;42.650;23.364;2023-08-06T10:30:44;93560.22;;;29.52;44.48
11099;BME280;12223;42.650;23.364;2023-08-06T10:33:12;93569.16;;;29.27;43.66
11099;BME280;12223;42.650;23.364;2023-08-06T10:35:41;93559.59;;;29.36;42.17
11099;BME280;12223;42.650;23.364;2023-08-06T10:38:09;93568.91;;;29.91;41.75
11099;BME280;12223;42.650;23.364;2023-08-06T10:40:39;93575.97;;;30.29;39.57
11099;BME280;12223;42.650;23.364;2023-08-06T10:43:06;93582.94;;;30.57;39.08
11099;BME280;12223;42.650;23.364;2023-08-06T10:45:36;93582.56;;;29.39;41.85
11099;BME280;12223;42.650;23.364;2023-08-06T10:48:05;93585.31;;;29.95;41.11
11099;BME280;12223;42.650;23.364;2023-08-06T10:50:32;93592.66;;;30.24;40.66
11099;BME280;12223;42.650;23.364;2023-08-06T10:53:03;93596.03;;;29.32;43.46
11099;BME280;12223;42.650;23.364;2023-08-06T10:55:31;93587.31;;;26.92;49.80
11099;BME280;12223;42.650;23.364;2023-08-06T10:57:58;93595.97;;;25.70;56.67
11099;BME280;12223;42.650;23.364;2023-08-06T11:00:25;93598.28;;;26.24;57.58
11099;BME280;12223;42.650;23.364;2023-08-06T11:02:52;93598.56;;;27.25;53.88
11099;BME280;12223;42.650;23.364;2023-08-06T11:05:21;93598.78;;;26.57;54.39
11099;BME280;12223;42.650;23.364;2023-08-06T11:07:48;93603.81;;;27.02;54.67
11099;BME280;12223;42.650;23.364;2023-08-06T11:10:16;93601.09;;;27.02;54.13
11099;BME280;12223;42.650;23.364;2023-08-06T11:12:43;93599.84;;;26.84;54.51
11099;BME280;12223;42.650;23.364;2023-08-06T11:15:10;93603.41;;;26.57;56.69
11099;BME280;12223;42.650;23.364;2023-08-06T11:17:40;93600.44;;;27.40;53.68
11099;BME280;12223;42.650;23.364;2023-08-06T11:20:08;93602.44;;;28.13;51.24
11099;BME280;12223;42.650;23.364;2023-08-06T11:22:37;93604.28;;;28.09;50.59
11099;BME280;12223;42.650;23.364;2023-08-06T11:25:06;93627.84;;;28.05;50.73
11099;BME280;12223;42.650;23.364;2023-08-06T11:27:33;93639.00;;;27.49;52.12
11099;BME280;12223;42.650;23.364;2023-08-06T11:30:00;93647.91;;;27.66;46.56
11099;BME280;12223;42.650;23.364;2023-08-06T11:32:26;93642.69;;;26.23;47.71
11099;BME280;12223;42.650;23.364;2023-08-06T11:34:53;93625.72;;;26.38;48.88
11099;BME280;12223;42.650;23.364;2023-08-06T11:37:21;93627.22;;;27.26;48.93
11099;BME280;12223;42.650;23.364;2023-08-06T11:39:51;93634.66;;;27.29;50.17
11099;BME280;12223;42.650;23.364;2023-08-06T11:42:18;93626.56;;;26.54;54.12
11099;BME280;12223;42.650;23.364;2023-08-06T11:44:45;93631.00;;;27.21;58.92
11099;BME280;12223;42.650;23.364;2023-08-06T11:47:14;93620.97;;;27.57;57.13
11099;BME280;12223;42.650;23.364;2023-08-06T11:49:42;93619.31;;;28.64;53.55
11099;BME280;12223;42.650;23.364;2023-08-06T11:52:13;93616.31;;;28.89;52.55
11099;BME280;12223;42.650;23.364;2023-08-06T11:54:40;93619.75;;;28.09;54.63
11099;BME280;12223;42.650;23.364;2023-08-06T11:57:08;93619.25;;;28.03;56.27
11099;BME280;12223;42.650;23.364;2023-08-06T11:59:36;93614.09;;;27.79;58.52
11099;BME280;12223;42.650;23.364;2023-08-06T12:02:04;93611.53;;;28.82;52.89
11099;BME280;12223;42.650;23.364;2023-08-06T12:04:32;93606.44;;;28.38;51.18
11099;BME280;12223;42.650;23.364;2023-08-06T12:07:05;93611.47;;;29.28;50.39
11099;BME280;12223;42.650;23.364;2023-08-06T12:09:33;93614.53;;;29.72;49.05
11099;BME280;12223;42.650;23.364;2023-08-06T12:12:01;93624.53;;;28.31;49.80
11099;BME280;12223;42.650;23.364;2023-08-06T12:14:30;93615.50;;;27.06;53.41
11099;BME280;12223;42.650;23.364;2023-08-06T12:16:56;93606.59;;;27.21;50.76
11099;BME280;12223;42.650;23.364;2023-08-06T12:19:23;93593.69;;;27.50;49.55
11099;BME280;12223;42.650;23.364;2023-08-06T12:21:50;93596.91;;;26.30;53.96
11099;BME280;12223;42.650;23.364;2023-08-06T12:24:17;93591.63;;;27.43;52.13
11099;BME280;12223;42.650;23.364;2023-08-06T12:26:43;93600.16;;;28.15;49.87
11099;BME280;12223;42.650;23.364;2023-08-06T12:29:10;93601.13;;;28.46;50.38
11099;BME280;12223;42.650;23.364;2023-08-06T12:31:38;93593.91;;;28.34;50.70
11099;BME280;12223;42.650;23.364;2023-08-06T12:34:05;93595.94;;;28.18;49.89
11099;BME280;12223;42.650;23.364;2023-08-06T12:36:32;93598.06;;;28.47;48.06
11099;BME280;12223;42.650;23.364;2023-08-06T12:38:58;93596.59;;;29.18;46.12
11099;BME280;12223;42.650;23.364;2023-08-06T12:41:25;93604.91;;;27.48;49.24
11099;BME280;12223;42.650;23.364;2023-08-06T12:43:52;93605.28;;;27.15;49.08
11099;BME280;12223;42.650;23.364;2023-08-06T12:46:19;93592.84;;;27.81;48.67